sensor_id;sensor_type;location;lat;lon;timestamp;temperature;humidity
12006;DHT22;6062;47.294;12.182;2022-10-29T00:00:42;12.60;51.10
12006;DHT22;6062;47.294;12.182;2022-10-29T00:03:08;12.60;51.10
12006;DHT22;6062;47.294;12.182;2022-10-29T00:05:34;12.60;51.10
12006;DHT22;6062;47.294;12.182;2022-10-29T00:08:00;12.60;51.10
12006;DHT22;6062;47.294;12.182;2022-10-29T00:10:27;12.60;51.10
12006;DHT22;6062;47.294;12.182;2022-10-29T00:12:53;12.60;51.00
12006;DHT22;6062;47.294;12.182;2022-10-29T00:15:19;12.60;51.00
12006;DHT22;6062;47.294;12.182;2022-10-29T00:17:45;12.60;51.10
12006;DHT22;6062;47.294;12.182;2022-10-29T00:20:11;12.60;51.00
12006;DHT22;6062;47.294;12.182;2022-10-29T00:22:37;12.60;51.00
12006;DHT22;6062;47.294;12.182;2022-10-29T00:25:03;12.60;51.00
12006;DHT22;6062;47.294;12.182;2022-10-29T00:27:29;12.70;51.10
12006;DHT22;6062;47.294;12.182;2022-10-29T00:29:54;12.70;51.00
12006;DHT22;6062;47.294;12.182;2022-10-29T00:32:20;12.70;51.10
12006;DHT22;6062;47.294;12.182;2022-10-29T00:34:46;12.70;51.00
12006;DHT22;6062;47.294;12.182;2022-10-29T00:37:12;12.70;51.00
12006;DHT22;6062;47.294;12.182;2022-10-29T00:39:38;12.60;51.00
12006;DHT22;6062;47.294;12.182;2022-10-29T00:42:03;12.60;51.10
12006;DHT22;6062;47.294;12.182;2022-10-29T00:44:33;12.60;51.00
12006;DHT22;6062;47.294;12.182;2022-10-29T00:47:01;12.60;51.10
12006;DHT22;6062;47.294;12.182;2022-10-29T00:49:37;12.60;51.10
12006;DHT22;6062;47.294;12.182;2022-10-29T00:52:06;12.50;51.10
12006;DHT22;6062;47.294;12.182;2022-10-29T00:54:36;12.50;51.20
12006;DHT22;6062;47.294;12.182;2022-10-29T00:57:23;12.50;51.20
12006;DHT22;6062;47.294;12.182;2022-10-29T00:59:53;12.50;51.30
12006;DHT22;6062;47.294;12.182;2022-10-29T01:02:21;12.50;51.20
12006;DHT22;6062;47.294;12.182;2022-10-29T01:04:47;12.40;51.30
12006;DHT22;6062;47.294;12.182;2022-10-29T01:07:14;12.40;51.30
12006;DHT22;6062;47.294;12.182;2022-10-29T01:09:40;12.40;51.20
12006;DHT22;6062;47.294;12.182;2022-10-29T01:23:40;12.40;51.60
12006;DHT22;6062;47.294;12.182;2022-10-29T01:29:50;12.40;51.50
12006;DHT22;6062;47.294;12.182;2022-10-29T01:35:21;12.40;51.40
12006;DHT22;6062;47.294;12.182;2022-10-29T01:38:08;12.40;51.50
12006;DHT22;6062;47.294;12.182;2022-10-29T01:43:46;12.40;51.40
12006;DHT22;6062;47.294;12.182;2022-10-29T01:46:36;12.40;51.30
12006;DHT22;6062;47.294;12.182;2022-10-29T01:49:13;12.40;51.50
12006;DHT22;6062;47.294;12.182;2022-10-29T01:51:45;12.40;51.30
12006;DHT22;6062;47.294;12.182;2022-10-29T01:54:13;12.50;51.20
12006;DHT22;6062;47.294;12.182;2022-10-29T01:56:39;12.50;51.30
12006;DHT22;6062;47.294;12.182;2022-10-29T01:59:08;12.50;51.30
12006;DHT22;6062;47.294;12.182;2022-10-29T02:05:10;12.60;51.30
12006;DHT22;6062;47.294;12.182;2022-10-29T02:11:26;12.60;51.20
12006;DHT22;6062;47.294;12.182;2022-10-29T02:14:05;12.60;51.00
12006;DHT22;6062;47.294;12.182;2022-10-29T02:16:34;12.60;50.90
12006;DHT22;6062;47.294;12.182;2022-10-29T02:19:00;12.60;51.00
12006;DHT22;6062;47.294;12.182;2022-10-29T02:21:26;12.60;51.00
12006;DHT22;6062;47.294;12.182;2022-10-29T02:23:52;12.60;50.80
12006;DHT22;6062;47.294;12.182;2022-10-29T02:26:17;12.60;50.90
12006;DHT22;6062;47.294;12.182;2022-10-29T02:28:43;12.60;51.00
12006;DHT22;6062;47.294;12.182;2022-10-29T02:31:09;12.60;50.90
12006;DHT22;6062;47.294;12.182;2022-10-29T02:33:35;12.60;50.90
12006;DHT22;6062;47.294;12.182;2022-10-29T02:36:01;12.60;50.80
12006;DHT22;6062;47.294;12.182;2022-10-29T02:38:26;12.60;50.90
12006;DHT22;6062;47.294;12.182;2022-10-29T02:40:52;12.60;50.90
12006;DHT22;6062;47.294;12.182;2022-10-29T02:43:18;12.60;50.90
12006;DHT22;6062;47.294;12.182;2022-10-29T02:45:43;12.60;51.10
12006;DHT22;6062;47.294;12.182;2022-10-29T02:48:09;12.50;51.10
12006;DHT22;6062;47.294;12.182;2022-10-29T02:50:35;12.50;51.00
12006;DHT22;6062;47.294;12.182;2022-10-29T02:53:00;12.50;50.80
12006;DHT22;6062;47.294;12.182;2022-10-29T02:55:26;12.50;50.80
12006;DHT22;6062;47.294;12.182;2022-10-29T02:57:52;12.50;50.90
12006;DHT22;6062;47.294;12.182;2022-10-29T03:00:17;12.40;50.90
12006;DHT22;6062;47.294;12.182;2022-10-29T03:02:43;12.50;51.00
12006;DHT22;6062;47.294;12.182;2022-10-29T03:05:09;12.40;51.10
12006;DHT22;6062;47.294;12.182;2022-10-29T03:07:36;12.40;51.10
12006;DHT22;6062;47.294;12.182;2022-10-29T03:10:06;12.40;51.10
12006;DHT22;6062;47.294;12.182;2022-10-29T03:12:33;12.40;51.20
12006;DHT22;6062;47.294;12.182;2022-10-29T03:14:58;12.40;51.10
12006;DHT22;6062;47.294;12.182;2022-10-29T03:17:24;12.40;51.10
12006;DHT22;6062;47.294;12.182;2022-10-29T03:19:50;12.40;51.00
12006;DHT22;6062;47.294;12.182;2022-10-29T03:22:16;12.40;51.10
12006;DHT22;6062;47.294;12.182;2022-10-29T03:24:41;12.40;51.10
12006;DHT22;6062;47.294;12.182;2022-10-29T03:27:07;12.40;51.10
12006;DHT22;6062;47.294;12.182;2022-10-29T03:29:33;12.40;51.30
12006;DHT22;6062;47.294;12.182;2022-10-29T03:31:58;12.40;51.20
12006;DHT22;6062;47.294;12.182;2022-10-29T03:34:24;12.40;51.20
12006;DHT22;6062;47.294;12.182;2022-10-29T03:36:50;12.30;51.20
12006;DHT22;6062;47.294;12.182;2022-10-29T03:39:15;12.30;51.10
12006;DHT22;6062;47.294;12.182;2022-10-29T03:41:41;12.30;51.20
12006;DHT22;6062;47.294;12.182;2022-10-29T03:44:07;12.30;51.20
12006;DHT22;6062;47.294;12.182;2022-10-29T03:46:32;12.30;51.20
12006;DHT22;6062;47.294;12.182;2022-10-29T03:48:58;12.30;51.30
12006;DHT22;6062;47.294;12.182;2022-10-29T03:51:24;12.30;51.30
12006;DHT22;6062;47.294;12.182;2022-10-29T03:53:50;12.30;51.20
12006;DHT22;6062;47.294;12.182;2022-10-29T03:56:15;12.30;51.10
12006;DHT22;6062;47.294;12.182;2022-10-29T03:58:41;12.30;51.10
12006;DHT22;6062;47.294;12.182;2022-10-29T04:01:08;12.30;51.00
12006;DHT22;6062;47.294;12.182;2022-10-29T04:03:36;12.40;51.10
12006;DHT22;6062;47.294;12.182;2022-10-29T04:06:12;12.40;51.10
12006;DHT22;6062;47.294;12.182;2022-10-29T04:08:39;12.40;51.10
12006;DHT22;6062;47.294;12.182;2022-10-29T04:11:09;12.40;51.00
12006;DHT22;6062;47.294;12.182;2022-10-29T04:13:36;12.40;51.00
12006;DHT22;6062;47.294;12.182;2022-10-29T04:16:01;12.40;51.00
12006;DHT22;6062;47.294;12.182;2022-10-29T04:18:27;12.50;51.10
12006;DHT22;6062;47.294;12.182;2022-10-29T04:20:53;12.50;51.00
12006;DHT22;6062;47.294;12.182;2022-10-29T04:23:23;12.50;51.00
12006;DHT22;6062;47.294;12.182;2022-10-29T04:25:56;12.50;50.90
12006;DHT22;6062;47.294;12.182;2022-10-29T04:28:23;12.50;51.00
12006;DHT22;6062;47.294;12.182;2022-10-29T04:30:49;12.50;50.80
12006;DHT22;6062;47.294;12.182;2022-10-29T04:33:15;12.40;50.90
12006;DHT22;6062;47.294;12.182;2022-10-29T04:35:41;12.40;50.80
12006;DHT22;6062;47.294;12.182;2022-10-29T04:38:10;12.40;50.90
12006;DHT22;6062;47.294;12.182;2022-10-29T04:40:37;12.40;51.00
12006;DHT22;6062;47.294;12.182;2022-10-29T04:43:03;12.40;50.90
12006;DHT22;6062;47.294;12.182;2022-10-29T04:45:28;12.40;51.00
12006;DHT22;6062;47.294;12.182;2022-10-29T04:48:01;12.30;50.90
12006;DHT22;6062;47.294;12.182;2022-10-29T04:50:29;12.30;51.00
12006;DHT22;6062;47.294;12.182;2022-10-29T04:52:59;12.30;51.00
12006;DHT22;6062;47.294;12.182;2022-10-29T04:55:26;12.30;51.20
12006;DHT22;6062;47.294;12.182;2022-10-29T04:57:53;12.30;51.10
12006;DHT22;6062;47.294;12.182;2022-10-29T05:00:20;12.30;51.20
12006;DHT22;6062;47.294;12.182;2022-10-29T05:02:47;12.30;51.30
12006;DHT22;6062;47.294;12.182;2022-10-29T05:05:17;12.30;51.30
12006;DHT22;6062;47.294;12.182;2022-10-29T05:07:44;12.20;51.40
12006;DHT22;6062;47.294;12.182;2022-10-29T05:10:10;12.20;51.30
12006;DHT22;6062;47.294;12.182;2022-10-29T05:12:36;12.20;51.50
12006;DHT22;6062;47.294;12.182;2022-10-29T05:15:03;12.20;51.50
12006;DHT22;6062;47.294;12.182;2022-10-29T05:17:30;12.20;51.50
12006;DHT22;6062;47.294;12.182;2022-10-29T05:19:56;12.10;51.30
12006;DHT22;6062;47.294;12.182;2022-10-29T05:22:21;12.10;51.30
12006;DHT22;6062;47.294;12.182;2022-10-29T05:24:47;12.10;51.40
12006;DHT22;6062;47.294;12.182;2022-10-29T05:27:13;12.10;51.40
12006;DHT22;6062;47.294;12.182;2022-10-29T05:29:39;12.10;51.50
12006;DHT22;6062;47.294;12.182;2022-10-29T05:32:04;12.10;51.50
12006;DHT22;6062;47.294;12.182;2022-10-29T05:34:30;12.10;51.50
12006;DHT22;6062;47.294;12.182;2022-10-29T05:36:56;12.10;51.50
12006;DHT22;6062;47.294;12.182;2022-10-29T05:39:21;12.10;51.60
12006;DHT22;6062;47.294;12.182;2022-10-29T05:41:47;12.10;51.70
12006;DHT22;6062;47.294;12.182;2022-10-29T05:44:13;12.10;51.80
12006;DHT22;6062;47.294;12.182;2022-10-29T05:46:38;12.10;51.80
12006;DHT22;6062;47.294;12.182;2022-10-29T05:49:04;12.10;51.90
12006;DHT22;6062;47.294;12.182;2022-10-29T05:51:30;12.10;51.90
12006;DHT22;6062;47.294;12.182;2022-10-29T05:53:55;12.00;52.00
12006;DHT22;6062;47.294;12.182;2022-10-29T05:56:21;12.00;52.00
12006;DHT22;6062;47.294;12.182;2022-10-29T05:58:50;12.00;52.10
12006;DHT22;6062;47.294;12.182;2022-10-29T06:01:16;12.00;52.20
12006;DHT22;6062;47.294;12.182;2022-10-29T06:03:44;12.00;52.10
12006;DHT22;6062;47.294;12.182;2022-10-29T06:06:10;12.10;52.30
12006;DHT22;6062;47.294;12.182;2022-10-29T06:08:36;12.10;52.40
12006;DHT22;6062;47.294;12.182;2022-10-29T06:11:02;12.10;52.60
12006;DHT22;6062;47.294;12.182;2022-10-29T06:13:29;12.20;52.80
12006;DHT22;6062;47.294;12.182;2022-10-29T06:15:57;12.30;52.90
12006;DHT22;6062;47.294;12.182;2022-10-29T06:18:25;12.40;53.10
12006;DHT22;6062;47.294;12.182;2022-10-29T06:20:53;12.60;53.40
12006;DHT22;6062;47.294;12.182;2022-10-29T06:23:19;12.80;53.50
12006;DHT22;6062;47.294;12.182;2022-10-29T06:25:45;13.00;53.60
12006;DHT22;6062;47.294;12.182;2022-10-29T06:28:12;13.30;53.60
12006;DHT22;6062;47.294;12.182;2022-10-29T06:30:49;13.70;53.60
12006;DHT22;6062;47.294;12.182;2022-10-29T06:33:19;14.10;53.60
12006;DHT22;6062;47.294;12.182;2022-10-29T06:35:45;14.50;53.30
12006;DHT22;6062;47.294;12.182;2022-10-29T06:38:12;15.00;52.80
12006;DHT22;6062;47.294;12.182;2022-10-29T06:40:39;15.50;52.30
12006;DHT22;6062;47.294;12.182;2022-10-29T06:43:08;16.10;51.60
12006;DHT22;6062;47.294;12.182;2022-10-29T06:45:36;16.60;51.10
12006;DHT22;6062;47.294;12.182;2022-10-29T06:48:02;17.20;50.60
12006;DHT22;6062;47.294;12.182;2022-10-29T06:50:29;17.80;49.90
12006;DHT22;6062;47.294;12.182;2022-10-29T06:53:00;18.40;49.10
12006;DHT22;6062;47.294;12.182;2022-10-29T06:55:28;19.00;48.00
12006;DHT22;6062;47.294;12.182;2022-10-29T06:57:58;19.60;47.20
12006;DHT22;6062;47.294;12.182;2022-10-29T07:00:30;20.20;45.80
12006;DHT22;6062;47.294;12.182;2022-10-29T07:02:57;20.70;45.30
12006;DHT22;6062;47.294;12.182;2022-10-29T07:05:23;21.30;44.30
12006;DHT22;6062;47.294;12.182;2022-10-29T07:07:54;21.90;43.40
12006;DHT22;6062;47.294;12.182;2022-10-29T07:10:21;22.40;41.80
12006;DHT22;6062;47.294;12.182;2022-10-29T07:12:47;22.90;41.00
12006;DHT22;6062;47.294;12.182;2022-10-29T07:15:13;23.30;40.10
12006;DHT22;6062;47.294;12.182;2022-10-29T07:17:39;23.70;38.60
12006;DHT22;6062;47.294;12.182;2022-10-29T07:20:06;24.00;37.40
12006;DHT22;6062;47.294;12.182;2022-10-29T07:22:33;24.20;36.40
12006;DHT22;6062;47.294;12.182;2022-10-29T07:24:59;24.30;35.80
12006;DHT22;6062;47.294;12.182;2022-10-29T07:27:24;24.30;34.80
12006;DHT22;6062;47.294;12.182;2022-10-29T07:29:52;24.20;34.40
12006;DHT22;6062;47.294;12.182;2022-10-29T07:32:17;24.10;34.20
12006;DHT22;6062;47.294;12.182;2022-10-29T07:34:43;23.90;34.30
12006;DHT22;6062;47.294;12.182;2022-10-29T07:37:09;23.70;34.50
12006;DHT22;6062;47.294;12.182;2022-10-29T07:39:34;23.50;34.60
12006;DHT22;6062;47.294;12.182;2022-10-29T07:42:00;23.30;35.20
12006;DHT22;6062;47.294;12.182;2022-10-29T07:44:26;23.30;35.80
12006;DHT22;6062;47.294;12.182;2022-10-29T07:46:51;23.20;36.10
12006;DHT22;6062;47.294;12.182;2022-10-29T07:49:17;23.30;36.30
12006;DHT22;6062;47.294;12.182;2022-10-29T07:51:43;23.50;35.10
12006;DHT22;6062;47.294;12.182;2022-10-29T07:54:08;23.70;34.80
12006;DHT22;6062;47.294;12.182;2022-10-29T07:56:34;24.00;34.30
12006;DHT22;6062;47.294;12.182;2022-10-29T07:58:59;24.20;34.60
12006;DHT22;6062;47.294;12.182;2022-10-29T08:01:25;24.60;35.10
12006;DHT22;6062;47.294;12.182;2022-10-29T08:03:51;24.90;33.80
12006;DHT22;6062;47.294;12.182;2022-10-29T08:06:17;25.20;32.40
12006;DHT22;6062;47.294;12.182;2022-10-29T08:08:42;25.50;30.80
12006;DHT22;6062;47.294;12.182;2022-10-29T08:11:08;25.60;30.20
12006;DHT22;6062;47.294;12.182;2022-10-29T08:13:34;25.60;29.60
12006;DHT22;6062;47.294;12.182;2022-10-29T08:15:59;25.50;29.40
12006;DHT22;6062;47.294;12.182;2022-10-29T08:18:25;25.30;29.50
12006;DHT22;6062;47.294;12.182;2022-10-29T08:20:51;25.10;29.50
12006;DHT22;6062;47.294;12.182;2022-10-29T08:23:17;24.80;29.50
12006;DHT22;6062;47.294;12.182;2022-10-29T08:25:43;24.60;29.50
12006;DHT22;6062;47.294;12.182;2022-10-29T08:28:12;24.30;29.70
12006;DHT22;6062;47.294;12.182;2022-10-29T08:30:39;24.10;30.30
12006;DHT22;6062;47.294;12.182;2022-10-29T08:33:08;23.90;31.60
12006;DHT22;6062;47.294;12.182;2022-10-29T08:35:35;23.90;32.90
12006;DHT22;6062;47.294;12.182;2022-10-29T08:38:01;24.00;32.50
12006;DHT22;6062;47.294;12.182;2022-10-29T08:49:05;25.00;31.50
12006;DHT22;6062;47.294;12.182;2022-10-29T08:51:42;25.20;32.20
12006;DHT22;6062;47.294;12.182;2022-10-29T08:54:14;25.60;31.50
12006;DHT22;6062;47.294;12.182;2022-10-29T08:56:49;26.00;31.20
12006;DHT22;6062;47.294;12.182;2022-10-29T08:59:21;26.40;30.30
12006;DHT22;6062;47.294;12.182;2022-10-29T09:01:49;26.80;30.20
12006;DHT22;6062;47.294;12.182;2022-10-29T09:04:33;27.20;30.10
12006;DHT22;6062;47.294;12.182;2022-10-29T09:07:27;27.70;29.20
12006;DHT22;6062;47.294;12.182;2022-10-29T09:10:26;28.20;28.50
12006;DHT22;6062;47.294;12.182;2022-10-29T09:19:35;29.60;27.50
12006;DHT22;6062;47.294;12.182;2022-10-29T09:25:29;30.50;27.50
12006;DHT22;6062;47.294;12.182;2022-10-29T09:33:33;31.80;25.60
12006;DHT22;6062;47.294;12.182;2022-10-29T09:36:00;32.00;25.50
12006;DHT22;6062;47.294;12.182;2022-10-29T09:38:36;32.30;25.00
12006;DHT22;6062;47.294;12.182;2022-10-29T09:41:09;32.50;24.70
12006;DHT22;6062;47.294;12.182;2022-10-29T09:43:37;32.80;24.50
12006;DHT22;6062;47.294;12.182;2022-10-29T09:46:45;33.00;24.40
12006;DHT22;6062;47.294;12.182;2022-10-29T09:52:33;33.30;23.40
12006;DHT22;6062;47.294;12.182;2022-10-29T09:55:02;33.40;23.70
12006;DHT22;6062;47.294;12.182;2022-10-29T09:57:34;33.60;23.60
12006;DHT22;6062;47.294;12.182;2022-10-29T10:00:06;33.70;22.80
12006;DHT22;6062;47.294;12.182;2022-10-29T10:02:43;33.90;22.90
12006;DHT22;6062;47.294;12.182;2022-10-29T10:07:40;34.00;22.30
12006;DHT22;6062;47.294;12.182;2022-10-29T10:10:20;34.00;22.10
12006;DHT22;6062;47.294;12.182;2022-10-29T10:12:49;33.80;21.60
12006;DHT22;6062;47.294;12.182;2022-10-29T10:17:57;33.20;21.50
12006;DHT22;6062;47.294;12.182;2022-10-29T10:23:07;32.30;21.90
12006;DHT22;6062;47.294;12.182;2022-10-29T10:25:44;31.80;22.60
12006;DHT22;6062;47.294;12.182;2022-10-29T10:28:18;31.50;22.80
12006;DHT22;6062;47.294;12.182;2022-10-29T10:30:51;31.20;23.10
12006;DHT22;6062;47.294;12.182;2022-10-29T10:33:53;31.10;23.20
12006;DHT22;6062;47.294;12.182;2022-10-29T10:36:22;30.80;23.10
12006;DHT22;6062;47.294;12.182;2022-10-29T10:38:52;30.60;23.10
12006;DHT22;6062;47.294;12.182;2022-10-29T10:41:32;30.50;24.00
12006;DHT22;6062;47.294;12.182;2022-10-29T10:44:01;30.30;24.10
12006;DHT22;6062;47.294;12.182;2022-10-29T10:46:36;30.10;24.20
12006;DHT22;6062;47.294;12.182;2022-10-29T10:49:06;29.90;24.20
12006;DHT22;6062;47.294;12.182;2022-10-29T10:51:36;29.80;24.40
12006;DHT22;6062;47.294;12.182;2022-10-29T10:54:32;29.70;24.30
12006;DHT22;6062;47.294;12.182;2022-10-29T10:59:41;29.90;25.50
12006;DHT22;6062;47.294;12.182;2022-10-29T11:02:28;30.10;25.80
12006;DHT22;6062;47.294;12.182;2022-10-29T11:05:13;30.40;25.90
12006;DHT22;6062;47.294;12.182;2022-10-29T11:07:53;30.90;25.00
12006;DHT22;6062;47.294;12.182;2022-10-29T11:10:55;31.30;25.00
12006;DHT22;6062;47.294;12.182;2022-10-29T11:13:28;31.80;23.70
12006;DHT22;6062;47.294;12.182;2022-10-29T11:16:30;32.20;23.80
12006;DHT22;6062;47.294;12.182;2022-10-29T11:30:14;32.90;22.80
12006;DHT22;6062;47.294;12.182;2022-10-29T11:32:58;32.80;22.40
12006;DHT22;6062;47.294;12.182;2022-10-29T11:35:49;32.80;22.30
12006;DHT22;6062;47.294;12.182;2022-10-29T11:41:35;32.70;22.10
12006;DHT22;6062;47.294;12.182;2022-10-29T11:44:11;32.70;21.90
12006;DHT22;6062;47.294;12.182;2022-10-29T11:47:08;32.70;22.30
12006;DHT22;6062;47.294;12.182;2022-10-29T11:50:09;32.70;22.30
12006;DHT22;6062;47.294;12.182;2022-10-29T12:01:34;32.30;21.90
12006;DHT22;6062;47.294;12.182;2022-10-29T12:04:20;31.90;22.00
12006;DHT22;6062;47.294;12.182;2022-10-29T12:16:20;29.90;23.10
12006;DHT22;6062;47.294;12.182;2022-10-29T12:27:57;27.70;24.20
12006;DHT22;6062;47.294;12.182;2022-10-29T12:30:34;27.10;24.70
12006;DHT22;6062;47.294;12.182;2022-10-29T12:33:22;26.50;24.70
12006;DHT22;6062;47.294;12.182;2022-10-29T12:38:59;25.50;26.00
12006;DHT22;6062;47.294;12.182;2022-10-29T12:41:56;25.00;26.90
12006;DHT22;6062;47.294;12.182;2022-10-29T12:44:39;24.60;27.00
12006;DHT22;6062;47.294;12.182;2022-10-29T12:47:16;24.20;27.50
12006;DHT22;6062;47.294;12.182;2022-10-29T12:53:06;23.60;28.30
12006;DHT22;6062;47.294;12.182;2022-10-29T12:55:35;23.30;28.40
12006;DHT22;6062;47.294;12.182;2022-10-29T13:09:23;22.00;30.30
12006;DHT22;6062;47.294;12.182;2022-10-29T13:11:52;21.90;30.30
12006;DHT22;6062;47.294;12.182;2022-10-29T13:17:00;21.60;31.30
12006;DHT22;6062;47.294;12.182;2022-10-29T13:19:58;21.50;31.50
12006;DHT22;6062;47.294;12.182;2022-10-29T13:22:49;21.40;32.70
12006;DHT22;6062;47.294;12.182;2022-10-29T13:25:41;21.40;32.40
12006;DHT22;6062;47.294;12.182;2022-10-29T13:30:43;21.30;32.20
12006;DHT22;6062;47.294;12.182;2022-10-29T13:35:54;21.30;32.60
12006;DHT22;6062;47.294;12.182;2022-10-29T13:44:03;21.10;33.90
12006;DHT22;6062;47.294;12.182;2022-10-29T13:49:43;21.00;34.10
12006;DHT22;6062;47.294;12.182;2022-10-29T13:52:15;21.10;34.30
12006;DHT22;6062;47.294;12.182;2022-10-29T13:54:49;21.00;35.10
12006;DHT22;6062;47.294;12.182;2022-10-29T13:57:36;21.10;35.20
12006;DHT22;6062;47.294;12.182;2022-10-29T14:08:14;21.10;35.10
12006;DHT22;6062;47.294;12.182;2022-10-29T14:10:55;21.10;34.90
12006;DHT22;6062;47.294;12.182;2022-10-29T14:13:49;21.20;34.50
12006;DHT22;6062;47.294;12.182;2022-10-29T14:16:17;21.20;34.50
12006;DHT22;6062;47.294;12.182;2022-10-29T14:18:51;21.20;34.90
12006;DHT22;6062;47.294;12.182;2022-10-29T14:21:23;21.20;35.30
12006;DHT22;6062;47.294;12.182;2022-10-29T14:24:01;21.10;34.90
12006;DHT22;6062;47.294;12.182;2022-10-29T14:26:34;21.10;34.70
12006;DHT22;6062;47.294;12.182;2022-10-29T14:29:23;21.10;35.00
12006;DHT22;6062;47.294;12.182;2022-10-29T14:32:05;21.10;35.40
12006;DHT22;6062;47.294;12.182;2022-10-29T14:34:35;21.00;35.50
12006;DHT22;6062;47.294;12.182;2022-10-29T14:37:04;21.00;35.70
12006;DHT22;6062;47.294;12.182;2022-10-29T14:39:43;20.90;36.10
12006;DHT22;6062;47.294;12.182;2022-10-29T14:42:31;20.80;36.10
12006;DHT22;6062;47.294;12.182;2022-10-29T14:45:02;20.80;36.60
12006;DHT22;6062;47.294;12.182;2022-10-29T14:47:35;20.70;36.50
12006;DHT22;6062;47.294;12.182;2022-10-29T14:50:04;20.60;36.40
12006;DHT22;6062;47.294;12.182;2022-10-29T14:52:42;20.50;37.10
12006;DHT22;6062;47.294;12.182;2022-10-29T14:58:00;20.30;37.90
12006;DHT22;6062;47.294;12.182;2022-10-29T15:00:36;20.20;37.90
12006;DHT22;6062;47.294;12.182;2022-10-29T15:03:05;20.10;37.80
12006;DHT22;6062;47.294;12.182;2022-10-29T15:05:34;20.00;38.20
12006;DHT22;6062;47.294;12.182;2022-10-29T15:10:48;19.70;38.40
12006;DHT22;6062;47.294;12.182;2022-10-29T15:13:34;19.60;38.80
12006;DHT22;6062;47.294;12.182;2022-10-29T15:16:07;19.40;39.20
12006;DHT22;6062;47.294;12.182;2022-10-29T15:18:46;19.30;39.20
12006;DHT22;6062;47.294;12.182;2022-10-29T15:21:22;19.20;39.60
12006;DHT22;6062;47.294;12.182;2022-10-29T15:24:26;19.10;39.80
12006;DHT22;6062;47.294;12.182;2022-10-29T15:26:50;18.90;39.80
12006;DHT22;6062;47.294;12.182;2022-10-29T15:29:26;18.80;40.10
12006;DHT22;6062;47.294;12.182;2022-10-29T15:31:55;18.70;40.20
12006;DHT22;6062;47.294;12.182;2022-10-29T15:34:27;18.50;40.10
12006;DHT22;6062;47.294;12.182;2022-10-29T15:36:56;18.40;40.10
12006;DHT22;6062;47.294;12.182;2022-10-29T15:42:28;18.10;40.70
12006;DHT22;6062;47.294;12.182;2022-10-29T15:47:41;17.90;40.80
12006;DHT22;6062;47.294;12.182;2022-10-29T15:50:14;17.80;40.80
12006;DHT22;6062;47.294;12.182;2022-10-29T15:52:59;17.70;40.90
12006;DHT22;6062;47.294;12.182;2022-10-29T15:55:31;17.50;41.20
12006;DHT22;6062;47.294;12.182;2022-10-29T15:58:11;17.40;41.20
12006;DHT22;6062;47.294;12.182;2022-10-29T16:00:38;17.30;41.60
12006;DHT22;6062;47.294;12.182;2022-10-29T16:03:20;17.20;41.40
12006;DHT22;6062;47.294;12.182;2022-10-29T16:05:49;17.10;41.80
12006;DHT22;6062;47.294;12.182;2022-10-29T16:10:56;16.90;42.00
12006;DHT22;6062;47.294;12.182;2022-10-29T16:13:25;16.90;42.00
12006;DHT22;6062;47.294;12.182;2022-10-29T16:15:53;16.80;42.10
12006;DHT22;6062;47.294;12.182;2022-10-29T16:18:19;16.70;42.30
12006;DHT22;6062;47.294;12.182;2022-10-29T16:20:46;16.60;42.20
12006;DHT22;6062;47.294;12.182;2022-10-29T16:23:13;16.50;42.30
12006;DHT22;6062;47.294;12.182;2022-10-29T16:25:39;16.50;42.50
12006;DHT22;6062;47.294;12.182;2022-10-29T16:28:05;16.40;42.60
12006;DHT22;6062;47.294;12.182;2022-10-29T16:30:32;16.20;42.40
12006;DHT22;6062;47.294;12.182;2022-10-29T16:32:59;16.20;42.70
12006;DHT22;6062;47.294;12.182;2022-10-29T16:35:27;16.10;43.00
12006;DHT22;6062;47.294;12.182;2022-10-29T16:37:55;16.00;43.20
12006;DHT22;6062;47.294;12.182;2022-10-29T16:40:23;16.00;43.60
12006;DHT22;6062;47.294;12.182;2022-10-29T16:42:51;15.90;43.40
12006;DHT22;6062;47.294;12.182;2022-10-29T16:45:25;15.90;43.70
12006;DHT22;6062;47.294;12.182;2022-10-29T16:47:52;15.80;43.90
12006;DHT22;6062;47.294;12.182;2022-10-29T16:50:29;15.80;43.80
12006;DHT22;6062;47.294;12.182;2022-10-29T16:53:07;15.70;43.90
12006;DHT22;6062;47.294;12.182;2022-10-29T16:55:38;15.70;44.40
12006;DHT22;6062;47.294;12.182;2022-10-29T16:58:11;15.60;44.50
12006;DHT22;6062;47.294;12.182;2022-10-29T17:00:37;15.50;44.80
12006;DHT22;6062;47.294;12.182;2022-10-29T17:03:04;15.40;44.70
12006;DHT22;6062;47.294;12.182;2022-10-29T17:05:34;15.40;44.80
12006;DHT22;6062;47.294;12.182;2022-10-29T17:08:01;15.30;45.00
12006;DHT22;6062;47.294;12.182;2022-10-29T17:10:27;15.20;44.90
12006;DHT22;6062;47.294;12.182;2022-10-29T17:12:55;15.20;45.10
12006;DHT22;6062;47.294;12.182;2022-10-29T17:15:20;15.10;45.30
12006;DHT22;6062;47.294;12.182;2022-10-29T17:17:46;15.10;45.20
12006;DHT22;6062;47.294;12.182;2022-10-29T17:20:12;15.00;45.10
12006;DHT22;6062;47.294;12.182;2022-10-29T17:22:37;15.00;45.10
12006;DHT22;6062;47.294;12.182;2022-10-29T17:25:03;15.00;45.00
12006;DHT22;6062;47.294;12.182;2022-10-29T17:27:29;15.00;45.00
12006;DHT22;6062;47.294;12.182;2022-10-29T17:29:55;15.00;45.00
12006;DHT22;6062;47.294;12.182;2022-10-29T17:32:21;14.90;45.30
12006;DHT22;6062;47.294;12.182;2022-10-29T17:34:46;14.90;45.50
12006;DHT22;6062;47.294;12.182;2022-10-29T17:37:12;14.90;45.50
12006;DHT22;6062;47.294;12.182;2022-10-29T17:39:38;14.90;45.70
12006;DHT22;6062;47.294;12.182;2022-10-29T17:42:04;14.90;45.80
12006;DHT22;6062;47.294;12.182;2022-10-29T17:44:29;14.90;45.80
12006;DHT22;6062;47.294;12.182;2022-10-29T17:46:58;14.90;45.80
12006;DHT22;6062;47.294;12.182;2022-10-29T17:49:24;14.90;45.70
12006;DHT22;6062;47.294;12.182;2022-10-29T17:51:51;14.90;45.70
12006;DHT22;6062;47.294;12.182;2022-10-29T17:54:17;14.90;46.10
12006;DHT22;6062;47.294;12.182;2022-10-29T17:56:45;14.80;46.00
12006;DHT22;6062;47.294;12.182;2022-10-29T17:59:11;14.80;46.10
12006;DHT22;6062;47.294;12.182;2022-10-29T18:01:37;14.80;46.00
12006;DHT22;6062;47.294;12.182;2022-10-29T18:04:03;14.80;46.10
12006;DHT22;6062;47.294;12.182;2022-10-29T18:06:30;14.80;46.30
12006;DHT22;6062;47.294;12.182;2022-10-29T18:08:56;14.80;46.40
12006;DHT22;6062;47.294;12.182;2022-10-29T18:11:23;14.70;46.50
12006;DHT22;6062;47.294;12.182;2022-10-29T18:13:49;14.70;46.50
12006;DHT22;6062;47.294;12.182;2022-10-29T18:16:20;14.70;46.60
12006;DHT22;6062;47.294;12.182;2022-10-29T18:18:49;14.70;46.80
12006;DHT22;6062;47.294;12.182;2022-10-29T18:21:18;14.60;46.70
12006;DHT22;6062;47.294;12.182;2022-10-29T18:23:46;14.60;47.00
12006;DHT22;6062;47.294;12.182;2022-10-29T18:26:32;14.60;47.00
12006;DHT22;6062;47.294;12.182;2022-10-29T18:29:01;14.60;47.20
12006;DHT22;6062;47.294;12.182;2022-10-29T18:31:31;14.50;47.20
12006;DHT22;6062;47.294;12.182;2022-10-29T18:33:58;14.50;47.10